Tarawa Tr, North Carolina
Current Conditions -  °F | °C
As of 7:56 AM on Friday 24 Oct 2014 (Local Time) from KNCA Reporting Station
Clear Clear  
Wind Chill: 47°   Ceiling: Unl
Heat Index: 47°   Visibility: 10mi
Dew Point: 44°   Wind: 3mph
Humidity: 90%   Direction: 290°WNW
Pressure: 30.02"   Gusts: NA
Location:  34.7353°N, 77.3964°W
Report Text: KNCA 241156Z AUTO 29003KT 10SM CLR 08/07 A3002 RMK AO2 SLP169 T00830067 10106 20072 53013
Loading
Personal Weather Stations






























Interactive Weather Map
Tropical Storm Tracking
New forecast layout! Learn more

10-Day Weather Forecast

Advertisements
Track Severe Weather on mobile